CCA6208 KNBG-PAII
Flight info
| Callsign | CCA6208 |
|---|---|
| Flight time | N/A |
| Altitude | 36000 |
| Route | HRV J58 PNH J17 KENTO Q154 WANTA J54 TOU J523 YZP Q801 TED J115 AKN |
| Aircraft | B772/H-V/N |
Departure
| Time | 2026-04-24 08:12 |
|---|---|
| Airport | New Orleans NAS JRB/Alvin Callender Field (KNBG) |
Arrival
| Time | N/A |
|---|---|
| Airport | Egegik Airport (PAII) |
| Time | Latitude | Longitude | Altitude | Speed | Heading |
|---|---|---|---|---|---|
| 2026-04-24 08:07 | 29.82772 | -90.03258 | 17 ft | 0 kts | 44° |
| 2026-04-24 08:11 | 29.82773 | -90.03258 | 17 ft | 0 kts | 44° |
| 2026-04-24 08:11 | 29.82781 | -90.03248 | 17 ft | 20 kts | 44° |
| 2026-04-24 08:11 | 29.83178 | -90.02806 | 17 ft | 138 kts | 44° |
| 2026-04-24 08:12 | 29.84092 | -90.01789 | 337 ft | 211 kts | 44° |
| 2026-04-24 08:12 | 29.85426 | -90.00756 | 1249 ft | 252 kts | 27° |
| 2026-04-24 08:12 | 29.87172 | -90.00488 | 2831 ft | 258 kts | 355° |
| 2026-04-24 08:12 | 29.88863 | -90.01157 | 4257 ft | 255 kts | 327° |
| 2026-04-24 08:13 | 29.90117 | -90.02606 | 5509 ft | 258 kts | 304° |
| 2026-04-24 08:13 | 29.91008 | -90.04432 | 6682 ft | 263 kts | 298° |
| 2026-04-24 08:13 | 29.91898 | -90.06264 | 7962 ft | 265 kts | 298° |
| 2026-04-24 08:13 | 29.92801 | -90.08138 | 9188 ft | 269 kts | 299° |
| 2026-04-24 08:14 | 29.93725 | -90.10031 | 10388 ft | 273 kts | 299° |
| 2026-04-24 08:14 | 29.94671 | -90.11953 | 11325 ft | 286 kts | 300° |
| 2026-04-24 08:14 | 29.95693 | -90.14009 | 12110 ft | 304 kts | 300° |
| 2026-04-24 08:14 | 29.96786 | -90.16191 | 12825 ft | 323 kts | 301° |
| 2026-04-24 08:15 | 29.97955 | -90.18508 | 13468 ft | 343 kts | 301° |
| 2026-04-24 08:15 | 29.99192 | -90.20942 | 14191 ft | 359 kts | 301° |
| 2026-04-24 08:15 | 30.00471 | -90.23446 | 14991 ft | 371 kts | 302° |
| 2026-04-24 08:15 | 30.01805 | -90.26042 | 15878 ft | 380 kts | 302° |
| 2026-04-24 08:16 | 30.03180 | -90.28698 | 16802 ft | 386 kts | 303° |
| 2026-04-24 08:16 | 30.04573 | -90.31369 | 17706 ft | 392 kts | 303° |
| 2026-04-24 08:16 | 30.05937 | -90.34133 | 18544 ft | 400 kts | 301° |
| 2026-04-24 08:16 | 30.07172 | -90.37041 | 19485 ft | 401 kts | 298° |
| 2026-04-24 08:17 | 30.08435 | -90.39922 | 20542 ft | 403 kts | 301° |
| 2026-04-24 08:17 | 30.09785 | -90.42773 | 21402 ft | 406 kts | 303° |
| 2026-04-24 08:17 | 30.11207 | -90.45564 | 22253 ft | 408 kts | 304° |
| 2026-04-24 08:17 | 30.12717 | -90.48348 | 23180 ft | 408 kts | 304° |
| 2026-04-24 08:18 | 30.14278 | -90.51104 | 24029 ft | 410 kts | 306° |
| 2026-04-24 08:18 | 30.15872 | -90.53851 | 24847 ft | 413 kts | 305° |
| 2026-04-24 08:18 | 30.17476 | -90.56618 | 25712 ft | 414 kts | 305° |
| 2026-04-24 08:18 | 30.19083 | -90.59401 | 26568 ft | 415 kts | 305° |
| 2026-04-24 08:19 | 30.20690 | -90.62196 | 27390 ft | 417 kts | 305° |
| 2026-04-24 08:19 | 30.22302 | -90.65008 | 28155 ft | 420 kts | 305° |
| 2026-04-24 08:19 | 30.23919 | -90.67833 | 28873 ft | 423 kts | 305° |
| 2026-04-24 08:19 | 30.25527 | -90.70647 | 29570 ft | 425 kts | 304° |
| 2026-04-24 08:20 | 30.27164 | -90.73515 | 30226 ft | 428 kts | 304° |
| 2026-04-24 08:20 | 30.28805 | -90.76392 | 30893 ft | 429 kts | 304° |
| 2026-04-24 08:20 | 30.30457 | -90.79290 | 31495 ft | 432 kts | 304° |
| 2026-04-24 08:20 | 30.32127 | -90.82225 | 31866 ft | 438 kts | 304° |
| 2026-04-24 08:21 | 30.33808 | -90.85179 | 32240 ft | 443 kts | 304° |
| 2026-04-24 08:21 | 30.35512 | -90.88177 | 32672 ft | 446 kts | 304° |
| 2026-04-24 08:21 | 30.37221 | -90.91185 | 33203 ft | 446 kts | 304° |
| 2026-04-24 08:21 | 30.38928 | -90.94193 | 33738 ft | 446 kts | 305° |
| 2026-04-24 08:22 | 30.40607 | -90.97153 | 34221 ft | 447 kts | 305° |
| 2026-04-24 08:22 | 30.42323 | -91.00180 | 34687 ft | 447 kts | 305° |
| 2026-04-24 08:22 | 30.44039 | -91.03211 | 35138 ft | 448 kts | 305° |
| 2026-04-24 08:22 | 30.45717 | -91.06175 | 35568 ft | 448 kts | 305° |
| 2026-04-24 08:23 | 30.47442 | -91.09226 | 35933 ft | 448 kts | 305° |
| 2026-04-24 08:23 | 30.50868 | -91.15261 | 35970 ft | 447 kts | 305° |
| 2026-04-24 08:24 | 30.54311 | -91.21344 | 35960 ft | 447 kts | 305° |
| 2026-04-24 08:24 | 30.57691 | -91.27362 | 35956 ft | 447 kts | 305° |
| 2026-04-24 08:25 | 30.61091 | -91.33428 | 35949 ft | 447 kts | 304° |
| 2026-04-24 08:25 | 30.64480 | -91.39477 | 35947 ft | 447 kts | 304° |
| 2026-04-24 08:26 | 30.67876 | -91.45538 | 35938 ft | 447 kts | 304° |
| 2026-04-24 08:26 | 30.71244 | -91.51564 | 35938 ft | 447 kts | 304° |
| 2026-04-24 08:27 | 30.74639 | -91.57656 | 35939 ft | 446 kts | 304° |
| 2026-04-24 08:27 | 30.78023 | -91.63741 | 35938 ft | 447 kts | 304° |
| 2026-04-24 08:28 | 30.81396 | -91.69817 | 35942 ft | 448 kts | 304° |
| 2026-04-24 08:28 | 30.84769 | -91.75901 | 35942 ft | 449 kts | 304° |
| 2026-04-24 08:29 | 30.88179 | -91.82000 | 35942 ft | 448 kts | 304° |
| 2026-04-24 08:29 | 30.91574 | -91.88088 | 35941 ft | 448 kts | 304° |
| 2026-04-24 08:30 | 30.94964 | -91.94200 | 35938 ft | 450 kts | 304° |
| 2026-04-24 08:30 | 30.98343 | -92.00309 | 35937 ft | 450 kts | 304° |
| 2026-04-24 08:31 | 31.01750 | -92.06483 | 35939 ft | 450 kts | 304° |
| 2026-04-24 08:31 | 31.05140 | -92.12633 | 35938 ft | 450 kts | 304° |
| 2026-04-24 08:32 | 31.08504 | -92.18744 | 35938 ft | 450 kts | 304° |
| 2026-04-24 08:32 | 31.11918 | -92.24909 | 35939 ft | 450 kts | 303° |
| 2026-04-24 08:33 | 31.15272 | -92.31032 | 35936 ft | 450 kts | 303° |
| 2026-04-24 08:33 | 31.18685 | -92.37286 | 35935 ft | 450 kts | 303° |
| 2026-04-24 08:34 | 31.22055 | -92.43466 | 35935 ft | 450 kts | 303° |
| 2026-04-24 08:34 | 31.25391 | -92.49663 | 35937 ft | 450 kts | 301° |
| 2026-04-24 08:35 | 31.28178 | -92.56235 | 35935 ft | 451 kts | 295° |
| 2026-04-24 08:35 | 31.30589 | -92.63025 | 35934 ft | 452 kts | 294° |
| 2026-04-24 08:36 | 31.33028 | -92.69832 | 35935 ft | 453 kts | 295° |
| 2026-04-24 08:36 | 31.35517 | -92.76603 | 35935 ft | 452 kts | 295° |
| 2026-04-24 08:37 | 31.38015 | -92.83368 | 35933 ft | 452 kts | 295° |
| 2026-04-24 08:37 | 31.40555 | -92.90107 | 35935 ft | 451 kts | 295° |
| 2026-04-24 08:38 | 31.43056 | -92.96841 | 35934 ft | 451 kts | 295° |
| 2026-04-24 08:38 | 31.45552 | -93.03636 | 35933 ft | 451 kts | 295° |
| 2026-04-24 08:39 | 31.47608 | -93.09250 | 35931 ft | 450 kts | 295° |
| 2026-04-24 08:39 | 31.50074 | -93.15981 | 35931 ft | 448 kts | 295° |
| 2026-04-24 08:40 | 31.52533 | -93.22698 | 35928 ft | 448 kts | 295° |
| 2026-04-24 08:40 | 31.54984 | -93.29416 | 35926 ft | 448 kts | 295° |
| 2026-04-24 08:41 | 31.57366 | -93.35851 | 35926 ft | 448 kts | 295° |
| 2026-04-24 08:41 | 31.59812 | -93.42581 | 35924 ft | 448 kts | 295° |
| 2026-04-24 08:42 | 31.62244 | -93.49302 | 35923 ft | 448 kts | 295° |
| 2026-04-24 08:42 | 31.64681 | -93.56049 | 35908 ft | 448 kts | 294° |
| 2026-04-24 08:43 | 31.67125 | -93.62812 | 35901 ft | 449 kts | 294° |
| 2026-04-24 08:43 | 31.69561 | -93.69511 | 35908 ft | 448 kts | 294° |
| 2026-04-24 08:44 | 31.71995 | -93.76251 | 35904 ft | 448 kts | 294° |
| 2026-04-24 08:44 | 31.74442 | -93.83035 | 35900 ft | 448 kts | 294° |
| 2026-04-24 08:45 | 31.76844 | -93.89750 | 35901 ft | 448 kts | 294° |
| 2026-04-24 08:45 | 31.79269 | -93.96504 | 35902 ft | 447 kts | 294° |
| 2026-04-24 08:46 | 31.81696 | -94.03257 | 35880 ft | 447 kts | 293° |
| 2026-04-24 08:46 | 31.84095 | -94.09991 | 35870 ft | 447 kts | 293° |
| 2026-04-24 08:47 | 31.86495 | -94.16741 | 35868 ft | 447 kts | 293° |
| 2026-04-24 08:47 | 31.88894 | -94.23486 | 35862 ft | 447 kts | 293° |
| 2026-04-24 08:48 | 31.91286 | -94.30243 | 35860 ft | 447 kts | 293° |
| 2026-04-24 08:48 | 31.93671 | -94.37011 | 35862 ft | 447 kts | 293° |
| 2026-04-24 08:49 | 31.96051 | -94.43783 | 35863 ft | 447 kts | 293° |
| 2026-04-24 08:49 | 31.98421 | -94.50547 | 35856 ft | 447 kts | 293° |
| 2026-04-24 08:50 | 32.00779 | -94.57287 | 35851 ft | 447 kts | 293° |
| 2026-04-24 08:50 | 32.03176 | -94.64050 | 35852 ft | 447 kts | 293° |
| 2026-04-24 08:51 | 32.05574 | -94.70817 | 35844 ft | 447 kts | 293° |
| 2026-04-24 08:51 | 32.07958 | -94.77603 | 35841 ft | 447 kts | 293° |
| 2026-04-24 08:52 | 32.10329 | -94.84381 | 35845 ft | 447 kts | 293° |
| 2026-04-24 08:52 | 32.12695 | -94.91166 | 35845 ft | 447 kts | 292° |
| 2026-04-24 08:53 | 32.15058 | -94.97960 | 35831 ft | 447 kts | 292° |
| 2026-04-24 08:53 | 32.17411 | -95.04739 | 35827 ft | 447 kts | 292° |
| 2026-04-24 08:54 | 32.19766 | -95.11539 | 35825 ft | 446 kts | 292° |
| 2026-04-24 08:54 | 32.22114 | -95.18331 | 35820 ft | 446 kts | 292° |
| 2026-04-24 08:55 | 32.24456 | -95.25123 | 35819 ft | 446 kts | 292° |
| 2026-04-24 08:55 | 32.26795 | -95.31916 | 35821 ft | 446 kts | 292° |
| 2026-04-24 08:56 | 32.29111 | -95.38661 | 35821 ft | 446 kts | 292° |
| 2026-04-24 08:56 | 32.31450 | -95.45483 | 35822 ft | 446 kts | 292° |
| 2026-04-24 08:57 | 32.33772 | -95.52272 | 35824 ft | 446 kts | 292° |
| 2026-04-24 08:57 | 32.36101 | -95.59095 | 35826 ft | 446 kts | 292° |
| 2026-04-24 08:58 | 32.38419 | -95.65901 | 35831 ft | 446 kts | 292° |
| 2026-04-24 08:58 | 32.40737 | -95.72721 | 35834 ft | 446 kts | 292° |
| 2026-04-24 08:59 | 32.43032 | -95.79485 | 35844 ft | 446 kts | 292° |
| 2026-04-24 08:59 | 32.45347 | -95.86323 | 35844 ft | 446 kts | 291° |
| 2026-04-24 09:00 | 32.47649 | -95.93139 | 35830 ft | 445 kts | 291° |
| 2026-04-24 09:00 | 32.49945 | -95.99951 | 35844 ft | 445 kts | 292° |
| 2026-04-24 09:01 | 32.52243 | -96.06781 | 35844 ft | 446 kts | 291° |
| 2026-04-24 09:01 | 32.54529 | -96.13592 | 35793 ft | 444 kts | 290° |
| 2026-04-24 09:02 | 32.56813 | -96.20411 | 35791 ft | 444 kts | 290° |
| 2026-04-24 09:02 | 32.59099 | -96.27251 | 35792 ft | 444 kts | 290° |
| 2026-04-24 09:03 | 32.61375 | -96.34075 | 35793 ft | 445 kts | 290° |
| 2026-04-24 09:03 | 32.63646 | -96.40898 | 35796 ft | 445 kts | 290° |
| 2026-04-24 09:04 | 32.65917 | -96.47737 | 35793 ft | 445 kts | 290° |
| 2026-04-24 09:04 | 32.68185 | -96.54581 | 35791 ft | 444 kts | 290° |
| 2026-04-24 09:05 | 32.70437 | -96.61393 | 35828 ft | 444 kts | 291° |
| 2026-04-24 09:05 | 32.72718 | -96.68304 | 35859 ft | 446 kts | 291° |
| 2026-04-24 09:06 | 32.74976 | -96.75162 | 35834 ft | 445 kts | 291° |
| 2026-04-24 09:06 | 32.76862 | -96.80903 | 35851 ft | 445 kts | 293° |
| 2026-04-24 09:07 | 32.79447 | -96.88693 | 35792 ft | 445 kts | 290° |
| 2026-04-24 09:07 | 32.82473 | -96.97965 | 35772 ft | 444 kts | 290° |
| 2026-04-24 09:08 | 32.84693 | -97.04805 | 35769 ft | 444 kts | 290° |
| 2026-04-24 09:08 | 32.86918 | -97.11669 | 35754 ft | 444 kts | 290° |
| 2026-04-24 09:09 | 32.89608 | -97.18334 | 35740 ft | 448 kts | 300° |
| 2026-04-24 09:09 | 32.93566 | -97.24095 | 35741 ft | 452 kts | 309° |
| 2026-04-24 09:10 | 32.97969 | -97.29509 | 35737 ft | 453 kts | 310° |
| 2026-04-24 09:10 | 33.02323 | -97.34931 | 35739 ft | 452 kts | 309° |
| 2026-04-24 09:11 | 33.06665 | -97.40433 | 35743 ft | 452 kts | 309° |
| 2026-04-24 09:11 | 33.10955 | -97.45896 | 35746 ft | 452 kts | 309° |
| 2026-04-24 09:12 | 33.15277 | -97.51370 | 35746 ft | 452 kts | 309° |
| 2026-04-24 09:12 | 33.19577 | -97.56832 | 35751 ft | 451 kts | 309° |
| 2026-04-24 09:13 | 33.23906 | -97.62346 | 35748 ft | 452 kts | 310° |
| 2026-04-24 09:13 | 33.28200 | -97.67810 | 35750 ft | 451 kts | 309° |
| 2026-04-24 09:14 | 33.32484 | -97.73311 | 35749 ft | 451 kts | 309° |
| 2026-04-24 09:14 | 33.36792 | -97.78857 | 35747 ft | 452 kts | 309° |
| 2026-04-24 09:15 | 33.41048 | -97.84340 | 35741 ft | 452 kts | 309° |
| 2026-04-24 09:15 | 33.45341 | -97.89872 | 35741 ft | 453 kts | 309° |
| 2026-04-24 09:16 | 33.49650 | -97.95434 | 35742 ft | 453 kts | 309° |
| 2026-04-24 09:16 | 33.53940 | -98.00988 | 35725 ft | 454 kts | 309° |
| 2026-04-24 09:17 | 33.58244 | -98.06570 | 35717 ft | 457 kts | 309° |
| 2026-04-24 09:17 | 33.62568 | -98.12187 | 35712 ft | 457 kts | 309° |
| 2026-04-24 09:18 | 33.66884 | -98.17802 | 35711 ft | 457 kts | 309° |
| 2026-04-24 09:18 | 33.71222 | -98.23409 | 35710 ft | 458 kts | 309° |
| 2026-04-24 09:19 | 33.75556 | -98.29027 | 35707 ft | 458 kts | 309° |
| 2026-04-24 09:19 | 33.79894 | -98.34642 | 35704 ft | 459 kts | 309° |
| 2026-04-24 09:20 | 33.84225 | -98.40296 | 35704 ft | 459 kts | 309° |
| 2026-04-24 09:20 | 33.88521 | -98.45931 | 35700 ft | 459 kts | 309° |
| 2026-04-24 09:21 | 33.92835 | -98.51599 | 35697 ft | 459 kts | 309° |
| 2026-04-24 09:21 | 33.97094 | -98.57286 | 35690 ft | 456 kts | 305° |
| 2026-04-24 09:22 | 34.00484 | -98.63712 | 35691 ft | 453 kts | 296° |
| 2026-04-24 09:22 | 34.03408 | -98.70449 | 35686 ft | 453 kts | 294° |
| 2026-04-24 09:23 | 34.06217 | -98.77223 | 35683 ft | 453 kts | 294° |
| 2026-04-24 09:23 | 34.09037 | -98.84025 | 35688 ft | 453 kts | 294° |
| 2026-04-24 09:24 | 34.11854 | -98.90825 | 35671 ft | 453 kts | 294° |
| 2026-04-24 09:24 | 34.14682 | -98.97648 | 35649 ft | 455 kts | 294° |
| 2026-04-24 09:25 | 34.17566 | -99.04492 | 35652 ft | 456 kts | 294° |
| 2026-04-24 09:25 | 34.20404 | -99.11294 | 35656 ft | 455 kts | 294° |
| 2026-04-24 09:26 | 34.23267 | -99.18194 | 35652 ft | 455 kts | 294° |
| 2026-04-24 09:26 | 34.26089 | -99.25020 | 35651 ft | 457 kts | 294° |
| 2026-04-24 09:27 | 34.28930 | -99.31910 | 35653 ft | 457 kts | 294° |
| 2026-04-24 09:27 | 34.31767 | -99.38806 | 35658 ft | 457 kts | 294° |
| 2026-04-24 09:28 | 34.34598 | -99.45702 | 35669 ft | 457 kts | 294° |
| 2026-04-24 09:28 | 34.37427 | -99.52608 | 35661 ft | 457 kts | 294° |
| 2026-04-24 09:29 | 34.40241 | -99.59491 | 35659 ft | 458 kts | 294° |
| 2026-04-24 09:29 | 34.43069 | -99.66422 | 35683 ft | 457 kts | 294° |
| 2026-04-24 09:30 | 34.45845 | -99.73241 | 35692 ft | 455 kts | 294° |
| 2026-04-24 09:30 | 34.48655 | -99.80156 | 35703 ft | 455 kts | 294° |
| 2026-04-24 09:31 | 34.51444 | -99.87033 | 35726 ft | 454 kts | 294° |
| 2026-04-24 09:31 | 34.54238 | -99.93939 | 35729 ft | 454 kts | 294° |
| 2026-04-24 09:32 | 34.57017 | -100.00819 | 35725 ft | 454 kts | 294° |
| 2026-04-24 09:32 | 34.59796 | -100.07715 | 35725 ft | 454 kts | 294° |
| 2026-04-24 09:33 | 34.62120 | -100.13493 | 35729 ft | 454 kts | 294° |
| 2026-04-24 09:33 | 34.64893 | -100.20401 | 35725 ft | 455 kts | 294° |
| 2026-04-24 09:34 | 34.67639 | -100.27254 | 35723 ft | 455 kts | 294° |
| 2026-04-24 09:34 | 34.70416 | -100.34201 | 35729 ft | 454 kts | 294° |
| 2026-04-24 09:35 | 34.73178 | -100.41125 | 35728 ft | 454 kts | 294° |
| 2026-04-24 09:35 | 34.75933 | -100.48044 | 35723 ft | 454 kts | 294° |
| 2026-04-24 09:36 | 34.78681 | -100.54960 | 35723 ft | 454 kts | 294° |
| 2026-04-24 09:36 | 34.81462 | -100.61975 | 35782 ft | 455 kts | 295° |
| 2026-04-24 09:37 | 34.84225 | -100.68957 | 35784 ft | 459 kts | 295° |
| 2026-04-24 09:37 | 34.86996 | -100.75976 | 35786 ft | 458 kts | 295° |
| 2026-04-24 09:38 | 34.89778 | -100.83039 | 35819 ft | 459 kts | 295° |
| 2026-04-24 09:38 | 34.92562 | -100.90121 | 35817 ft | 461 kts | 295° |
| 2026-04-24 09:39 | 34.95326 | -100.97166 | 35806 ft | 459 kts | 294° |
| 2026-04-24 09:39 | 34.98072 | -101.04183 | 35815 ft | 458 kts | 295° |
| 2026-04-24 09:40 | 35.00828 | -101.11240 | 35828 ft | 461 kts | 295° |
| 2026-04-24 09:40 | 35.03581 | -101.18303 | 35822 ft | 461 kts | 294° |
| 2026-04-24 09:41 | 35.06325 | -101.25358 | 35822 ft | 460 kts | 294° |
| 2026-04-24 09:41 | 35.09066 | -101.32422 | 35823 ft | 460 kts | 294° |
| 2026-04-24 09:42 | 35.11848 | -101.39529 | 35821 ft | 460 kts | 294° |
| 2026-04-24 09:42 | 35.14581 | -101.46599 | 35820 ft | 459 kts | 294° |
| 2026-04-24 09:43 | 35.17281 | -101.53632 | 35834 ft | 459 kts | 294° |
| 2026-04-24 09:43 | 35.20010 | -101.60756 | 35835 ft | 459 kts | 294° |
| 2026-04-24 09:44 | 35.22877 | -101.67757 | 35829 ft | 461 kts | 300° |
| 2026-04-24 09:44 | 35.27121 | -101.73670 | 35825 ft | 467 kts | 316° |
| 2026-04-24 09:45 | 35.32336 | -101.78385 | 35808 ft | 469 kts | 321° |
| 2026-04-24 09:45 | 35.37709 | -101.83002 | 35821 ft | 468 kts | 321° |
| 2026-04-24 09:46 | 35.42935 | -101.87685 | 35807 ft | 468 kts | 320° |
| 2026-04-24 09:46 | 35.48166 | -101.92463 | 35810 ft | 468 kts | 320° |
| 2026-04-24 09:47 | 35.53396 | -101.97242 | 35841 ft | 467 kts | 321° |
| 2026-04-24 09:47 | 35.58616 | -102.02000 | 35853 ft | 465 kts | 321° |
| 2026-04-24 09:48 | 35.63813 | -102.06769 | 35856 ft | 466 kts | 320° |
| 2026-04-24 09:48 | 35.69007 | -102.11551 | 35848 ft | 466 kts | 321° |
| 2026-04-24 09:49 | 35.74201 | -102.16343 | 35869 ft | 465 kts | 321° |
| 2026-04-24 09:49 | 35.79421 | -102.21168 | 35877 ft | 466 kts | 321° |
| 2026-04-24 09:50 | 35.84598 | -102.25962 | 35881 ft | 466 kts | 321° |
| 2026-04-24 09:50 | 35.89798 | -102.30785 | 35894 ft | 466 kts | 321° |
| 2026-04-24 09:51 | 35.94986 | -102.35606 | 35891 ft | 466 kts | 321° |
| 2026-04-24 09:51 | 35.99318 | -102.39638 | 35887 ft | 466 kts | 321° |
| 2026-04-24 09:52 | 36.04502 | -102.44470 | 35898 ft | 466 kts | 321° |
| 2026-04-24 09:52 | 36.09682 | -102.49306 | 35906 ft | 466 kts | 321° |
| 2026-04-24 09:53 | 36.14870 | -102.54158 | 35905 ft | 466 kts | 321° |
| 2026-04-24 09:53 | 36.20021 | -102.58983 | 35904 ft | 466 kts | 321° |
| 2026-04-24 09:54 | 36.25203 | -102.63846 | 35909 ft | 466 kts | 320° |
| 2026-04-24 09:54 | 36.30372 | -102.68705 | 35917 ft | 465 kts | 320° |
| 2026-04-24 09:55 | 36.35530 | -102.73563 | 35915 ft | 465 kts | 320° |
| 2026-04-24 09:55 | 36.40684 | -102.78424 | 35922 ft | 465 kts | 320° |
| 2026-04-24 09:56 | 36.45831 | -102.83287 | 35923 ft | 464 kts | 320° |
| 2026-04-24 09:56 | 36.50986 | -102.88141 | 35921 ft | 465 kts | 320° |
| 2026-04-24 09:57 | 36.56174 | -102.93052 | 35929 ft | 464 kts | 320° |
| 2026-04-24 09:57 | 36.61302 | -102.97934 | 35931 ft | 464 kts | 320° |
| 2026-04-24 09:58 | 36.66442 | -103.02836 | 35931 ft | 464 kts | 320° |
| 2026-04-24 09:58 | 36.71542 | -103.07740 | 35929 ft | 462 kts | 317° |
| 2026-04-24 09:59 | 36.75978 | -103.13589 | 35920 ft | 460 kts | 307° |
| 2026-04-24 09:59 | 36.79900 | -103.19911 | 35891 ft | 459 kts | 305° |
| 2026-04-24 10:00 | 36.83658 | -103.26242 | 35905 ft | 459 kts | 305° |
| 2026-04-24 10:00 | 36.86530 | -103.31079 | 35933 ft | 459 kts | 305° |
| 2026-04-24 10:01 | 36.90393 | -103.37578 | 35939 ft | 459 kts | 305° |
| 2026-04-24 10:01 | 36.94214 | -103.44013 | 35957 ft | 461 kts | 305° |
| 2026-04-24 10:02 | 36.98079 | -103.50439 | 35958 ft | 461 kts | 305° |
| 2026-04-24 10:02 | 37.01920 | -103.56865 | 35957 ft | 461 kts | 305° |
| 2026-04-24 10:03 | 37.05775 | -103.63352 | 35962 ft | 461 kts | 304° |
| 2026-04-24 10:03 | 37.09600 | -103.69810 | 35964 ft | 462 kts | 304° |
| 2026-04-24 10:04 | 37.13423 | -103.76279 | 35966 ft | 463 kts | 304° |
| 2026-04-24 10:04 | 37.17261 | -103.82787 | 35967 ft | 463 kts | 304° |
| 2026-04-24 10:05 | 37.21086 | -103.89286 | 35966 ft | 463 kts | 304° |
| 2026-04-24 10:05 | 37.24921 | -103.95815 | 35967 ft | 463 kts | 304° |
| 2026-04-24 10:06 | 37.30659 | -104.05607 | 35965 ft | 464 kts | 304° |
| 2026-04-24 10:07 | 37.34486 | -104.12155 | 35964 ft | 464 kts | 304° |
| 2026-04-24 10:07 | 37.38306 | -104.18701 | 35964 ft | 464 kts | 304° |
| 2026-04-24 10:08 | 37.42120 | -104.25253 | 35965 ft | 464 kts | 304° |
| 2026-04-24 10:08 | 37.45954 | -104.31794 | 35963 ft | 464 kts | 304° |
| 2026-04-24 10:09 | 37.49794 | -104.38413 | 35962 ft | 465 kts | 304° |
| 2026-04-24 10:09 | 37.53594 | -104.45001 | 35963 ft | 464 kts | 304° |
| 2026-04-24 10:10 | 37.57390 | -104.51594 | 35963 ft | 464 kts | 304° |
| 2026-04-24 10:10 | 37.61190 | -104.58194 | 35960 ft | 465 kts | 304° |
| 2026-04-24 10:11 | 37.64964 | -104.64830 | 35948 ft | 466 kts | 304° |
| 2026-04-24 10:11 | 37.68724 | -104.71508 | 35952 ft | 466 kts | 303° |
| 2026-04-24 10:12 | 37.71861 | -104.77092 | 35952 ft | 466 kts | 303° |
| 2026-04-24 10:12 | 37.75617 | -104.83794 | 35946 ft | 466 kts | 303° |
| 2026-04-24 10:13 | 37.79390 | -104.90539 | 35949 ft | 466 kts | 303° |
| 2026-04-24 10:13 | 37.83141 | -104.97233 | 35951 ft | 466 kts | 304° |
| 2026-04-24 10:14 | 37.86920 | -105.03902 | 35966 ft | 464 kts | 304° |
| 2026-04-24 10:14 | 37.90637 | -105.10523 | 35963 ft | 463 kts | 304° |
| 2026-04-24 10:15 | 37.94365 | -105.17199 | 35968 ft | 463 kts | 303° |
| 2026-04-24 10:15 | 37.98091 | -105.23889 | 35974 ft | 463 kts | 303° |
| 2026-04-24 10:16 | 38.01794 | -105.30556 | 36009 ft | 465 kts | 303° |
| 2026-04-24 10:16 | 38.05516 | -105.37271 | 36009 ft | 464 kts | 303° |
| 2026-04-24 10:17 | 38.09234 | -105.43993 | 36000 ft | 464 kts | 303° |
| 2026-04-24 10:17 | 38.12926 | -105.50680 | 36012 ft | 463 kts | 304° |
| 2026-04-24 10:18 | 38.16627 | -105.57399 | 36018 ft | 463 kts | 304° |
| 2026-04-24 10:18 | 38.20325 | -105.64126 | 36018 ft | 463 kts | 304° |
| 2026-04-24 10:19 | 38.24015 | -105.70851 | 36019 ft | 463 kts | 304° |
| 2026-04-24 10:19 | 38.27678 | -105.77542 | 36032 ft | 464 kts | 304° |
| 2026-04-24 10:20 | 38.31365 | -105.84290 | 36030 ft | 464 kts | 304° |
| 2026-04-24 10:20 | 38.35053 | -105.91054 | 36042 ft | 464 kts | 304° |
| 2026-04-24 10:21 | 38.38733 | -105.97818 | 36044 ft | 464 kts | 304° |
| 2026-04-24 10:21 | 38.42415 | -106.04599 | 36046 ft | 464 kts | 304° |
| 2026-04-24 10:22 | 38.46099 | -106.11399 | 36044 ft | 464 kts | 304° |
| 2026-04-24 10:22 | 38.49751 | -106.18152 | 36042 ft | 464 kts | 304° |
| 2026-04-24 10:23 | 38.53412 | -106.24937 | 36007 ft | 462 kts | 304° |
| 2026-04-24 10:23 | 38.57052 | -106.31696 | 36009 ft | 462 kts | 304° |
| 2026-04-24 10:24 | 38.60701 | -106.38487 | 36021 ft | 462 kts | 304° |
| 2026-04-24 10:24 | 38.64344 | -106.45213 | 35980 ft | 462 kts | 304° |
| 2026-04-24 10:25 | 38.67963 | -106.51981 | 35966 ft | 459 kts | 304° |
| 2026-04-24 10:25 | 38.71564 | -106.58750 | 35957 ft | 458 kts | 304° |
| 2026-04-24 10:26 | 38.75155 | -106.65514 | 35945 ft | 458 kts | 304° |
| 2026-04-24 10:26 | 38.78734 | -106.72252 | 36054 ft | 460 kts | 303° |
| 2026-04-24 10:27 | 38.82412 | -106.79111 | 36103 ft | 468 kts | 303° |
| 2026-04-24 10:27 | 38.86102 | -106.85982 | 36103 ft | 468 kts | 303° |
| 2026-04-24 10:28 | 38.89793 | -106.92875 | 36098 ft | 468 kts | 303° |
| 2026-04-24 10:28 | 38.93511 | -106.99769 | 36097 ft | 469 kts | 304° |
| 2026-04-24 10:29 | 38.97238 | -107.06670 | 36101 ft | 468 kts | 303° |
| 2026-04-24 10:29 | 39.00908 | -107.13570 | 36099 ft | 468 kts | 303° |
| 2026-04-24 10:30 | 39.04589 | -107.20512 | 36095 ft | 470 kts | 303° |
| 2026-04-24 10:30 | 39.08256 | -107.27432 | 36095 ft | 470 kts | 303° |
| 2026-04-24 10:31 | 39.11915 | -107.34402 | 36094 ft | 469 kts | 302° |
| 2026-04-24 10:31 | 39.15523 | -107.41438 | 36087 ft | 470 kts | 302° |
| 2026-04-24 10:32 | 39.19120 | -107.48472 | 36087 ft | 470 kts | 302° |
| 2026-04-24 10:32 | 39.22717 | -107.55520 | 36078 ft | 470 kts | 302° |
| 2026-04-24 10:33 | 39.26314 | -107.62584 | 36061 ft | 471 kts | 302° |
| 2026-04-24 10:33 | 39.29917 | -107.69651 | 36063 ft | 471 kts | 302° |
| 2026-04-24 10:34 | 39.33548 | -107.76678 | 36067 ft | 471 kts | 302° |
| 2026-04-24 10:34 | 39.37161 | -107.83744 | 36059 ft | 471 kts | 302° |
| 2026-04-24 10:35 | 39.40766 | -107.90833 | 36055 ft | 471 kts | 302° |
| 2026-04-24 10:35 | 39.44365 | -107.97935 | 36053 ft | 471 kts | 302° |
| 2026-04-24 10:36 | 39.47953 | -108.05035 | 36053 ft | 471 kts | 302° |
| 2026-04-24 10:36 | 39.51549 | -108.12166 | 36054 ft | 471 kts | 302° |
| 2026-04-24 10:37 | 39.55129 | -108.19281 | 36051 ft | 471 kts | 302° |
| 2026-04-24 10:37 | 39.58708 | -108.26411 | 36053 ft | 471 kts | 302° |
| 2026-04-24 10:38 | 39.62279 | -108.33541 | 36053 ft | 471 kts | 302° |
| 2026-04-24 10:38 | 39.65849 | -108.40687 | 36053 ft | 471 kts | 302° |
| 2026-04-24 10:39 | 39.69415 | -108.47838 | 36053 ft | 471 kts | 302° |
| 2026-04-24 10:39 | 39.72956 | -108.54957 | 36053 ft | 471 kts | 302° |
| 2026-04-24 10:40 | 39.76514 | -108.62125 | 36044 ft | 472 kts | 302° |
| 2026-04-24 10:40 | 39.80095 | -108.69357 | 36045 ft | 472 kts | 302° |
| 2026-04-24 10:41 | 39.83630 | -108.76512 | 36044 ft | 472 kts | 302° |
| 2026-04-24 10:41 | 39.87188 | -108.83730 | 36023 ft | 472 kts | 302° |
| 2026-04-24 10:42 | 39.90735 | -108.90944 | 36024 ft | 472 kts | 302° |
| 2026-04-24 10:42 | 39.93676 | -108.96936 | 36006 ft | 473 kts | 302° |
| 2026-04-24 10:43 | 39.97237 | -109.04145 | 35986 ft | 473 kts | 302° |
| 2026-04-24 10:43 | 40.00780 | -109.11377 | 35991 ft | 473 kts | 301° |
| 2026-04-24 10:44 | 40.04313 | -109.18654 | 35991 ft | 473 kts | 301° |
| 2026-04-24 10:44 | 40.07810 | -109.25874 | 35988 ft | 473 kts | 301° |
| 2026-04-24 10:45 | 40.11335 | -109.33155 | 35989 ft | 473 kts | 301° |
| 2026-04-24 10:45 | 40.15005 | -109.40349 | 35989 ft | 473 kts | 305° |
| 2026-04-24 10:46 | 40.18937 | -109.47178 | 35988 ft | 473 kts | 306° |
| 2026-04-24 10:46 | 40.22931 | -109.54098 | 35989 ft | 473 kts | 306° |
| 2026-04-24 10:47 | 40.26853 | -109.61022 | 35987 ft | 473 kts | 305° |
| 2026-04-24 10:47 | 40.30735 | -109.67926 | 35986 ft | 473 kts | 305° |
| 2026-04-24 10:48 | 40.34655 | -109.74878 | 35978 ft | 472 kts | 306° |
| 2026-04-24 10:48 | 40.38556 | -109.81749 | 35981 ft | 473 kts | 305° |
| 2026-04-24 10:49 | 40.42466 | -109.88702 | 35979 ft | 472 kts | 305° |
| 2026-04-24 10:49 | 40.46358 | -109.95658 | 35977 ft | 472 kts | 305° |
| 2026-04-24 10:50 | 40.50242 | -110.02622 | 35977 ft | 472 kts | 305° |
| 2026-04-24 10:50 | 40.54087 | -110.09534 | 35975 ft | 472 kts | 305° |
| 2026-04-24 10:51 | 40.57962 | -110.16515 | 35975 ft | 472 kts | 305° |
| 2026-04-24 10:51 | 40.61699 | -110.23635 | 35998 ft | 469 kts | 298° |
| 2026-04-24 10:52 | 40.63917 | -110.31552 | 35923 ft | 466 kts | 286° |
| 2026-04-24 10:52 | 40.64786 | -110.35656 | 35648 ft | 454 kts | 286° |
| 2026-04-24 10:52 | 40.65609 | -110.39642 | 35042 ft | 449 kts | 286° |
| 2026-04-24 10:52 | 40.66429 | -110.43624 | 34180 ft | 450 kts | 285° |
| 2026-04-24 10:53 | 40.67254 | -110.47622 | 33342 ft | 451 kts | 285° |
| 2026-04-24 10:53 | 40.68071 | -110.51588 | 32610 ft | 448 kts | 285° |
| 2026-04-24 10:53 | 40.68877 | -110.55502 | 32342 ft | 435 kts | 285° |
| 2026-04-24 10:53 | 40.69661 | -110.59313 | 32104 ft | 423 kts | 285° |
| 2026-04-24 10:54 | 40.70421 | -110.63016 | 31784 ft | 414 kts | 285° |
| 2026-04-24 10:54 | 40.71168 | -110.66660 | 31299 ft | 409 kts | 285° |
| 2026-04-24 10:54 | 40.71905 | -110.70258 | 30874 ft | 403 kts | 285° |
| 2026-04-24 10:54 | 40.72624 | -110.73776 | 30431 ft | 398 kts | 285° |
| 2026-04-24 10:55 | 40.73339 | -110.77284 | 30009 ft | 392 kts | 286° |
| 2026-04-24 10:55 | 40.74045 | -110.80747 | 29454 ft | 390 kts | 287° |
| 2026-04-24 10:55 | 40.74742 | -110.84178 | 28876 ft | 387 kts | 287° |
| 2026-04-24 10:55 | 40.75439 | -110.87611 | 28242 ft | 386 kts | 286° |
| 2026-04-24 10:56 | 40.76132 | -110.91029 | 27602 ft | 385 kts | 286° |
| 2026-04-24 10:56 | 40.76815 | -110.94406 | 27047 ft | 383 kts | 286° |
| 2026-04-24 10:56 | 40.77499 | -110.97792 | 26501 ft | 380 kts | 286° |
| 2026-04-24 10:56 | 40.78168 | -111.01108 | 25895 ft | 379 kts | 286° |
| 2026-04-24 10:57 | 40.79106 | -111.05769 | 25181 ft | 374 kts | 286° |
| 2026-04-24 10:57 | 40.80434 | -111.12383 | 24087 ft | 369 kts | 286° |
| 2026-04-24 10:57 | 40.81740 | -111.18912 | 22992 ft | 365 kts | 287° |
| 2026-04-24 10:57 | 40.83018 | -111.25320 | 22069 ft | 357 kts | 287° |
| 2026-04-24 10:58 | 40.84249 | -111.31513 | 21092 ft | 351 kts | 287° |